| time (UTC) | temp F | wind direction | speed MPH | gust MPH | rain 1hr in | rain 24hr in | rain mn in | humidity % | barometer mb |
| 20260506221826 | 65 | 311 | 0.0 | 4.0 | 0.00 | 0.00 | 0.00 | 60 | 1023.7 |
| 20260506221330 | 65 | 309 | 0.0 | 10.0 | 0.00 | 0.00 | 0.00 | 60 | 1023.7 |
| 20260506220838 | 66 | 323 | 0.0 | 10.0 | 0.00 | 0.00 | 0.00 | 59 | 1023.7 |
| 20260506220338 | 65 | 317 | 0.0 | 4.0 | 0.00 | 0.00 | 0.00 | 60 | 1023.7 |
| 20260506215911 | 66 | 340 | 0.0 | 10.0 | 0.00 | 0.00 | 0.00 | 59 | 1023.7 |
| 20260506215340 | 66 | 294 | 0.0 | 10.0 | 0.00 | 0.00 | 0.00 | 60 | 1023.7 |
| 20260506214841 | 66 | 312 | 0.0 | 3.0 | 0.00 | 0.00 | 0.00 | 60 | 1023.7 |
| 20260506214328 | 65 | 261 | 0.0 | 8.0 | 0.00 | 0.00 | 0.00 | 60 | 1023.7 |
| 20260506213829 | 66 | 326 | 0.0 | 11.0 | 0.00 | 0.00 | 0.00 | 60 | 1023.6 |
| 20260506213339 | 67 | 273 | 0.0 | 3.0 | 0.00 | 0.00 | 0.00 | 59 | 1023.6 |
| 20260506212847 | 67 | 271 | 0.0 | 7.0 | 0.00 | 0.00 | 0.00 | 60 | 1023.7 |
| 20260506212334 | 64 | 265 | 0.0 | 8.0 | 0.00 | 0.00 | 0.00 | 61 | 1023.7 |
| 20260506211844 | 65 | 254 | 0.0 | 6.0 | 0.00 | 0.00 | 0.00 | 61 | 1023.7 |
| 20260506211321 | 66 | 296 | 1.0 | 4.0 | 0.00 | 0.00 | 0.00 | 59 | 1023.7 |
| 20260506210829 | 66 | 240 | 0.0 | 5.0 | 0.00 | 0.00 | 0.00 | 59 | 1023.7 |
| 20260506210328 | 65 | 330 | 0.0 | 5.0 | 0.00 | 0.00 | 0.00 | 61 | 1023.6 |
| 20260506205831 | 66 | 321 | 0.0 | 1.0 | 0.00 | 0.00 | 0.00 | 60 | 1023.7 |
| 20260506205359 | 65 | 325 | 0.0 | 5.0 | 0.00 | 0.00 | 0.00 | 61 | 1023.6 |
| 20260506204907 | 65 | 338 | 0.0 | 5.0 | 0.00 | 0.00 | 0.00 | 61 | 1023.7 |
| 20260506204406 | 65 | 250 | 0.0 | 8.0 | 0.00 | 0.00 | 0.00 | 60 | 1023.7 |
| 20260506203848 | 66 | 295 | 0.0 | 8.0 | 0.00 | 0.00 | 0.00 | 58 | 1023.6 |
| 20260506203329 | 65 | 329 | 0.0 | 12.0 | 0.00 | 0.00 | 0.00 | 60 | 1023.7 |
| 20260506202859 | 64 | 38 | 0.0 | 12.0 | 0.00 | 0.00 | 0.00 | 61 | 1023.7 |
| 20260506202344 | 66 | 24 | 0.0 | 8.0 | 0.00 | 0.00 | 0.00 | 57 | 1023.7 |
| 20260506201830 | 66 | 83 | 0.0 | 8.0 | 0.00 | 0.00 | 0.00 | 57 | 1023.8 |
| 20260506201330 | 65 | 13 | 0.0 | 1.0 | 0.00 | 0.01 | 0.00 | 60 | 1023.9 |
| 20260506200836 | 64 | 320 | 0.0 | 1.0 | 0.00 | 0.01 | 0.00 | 59 | 1023.9 |
| 20260506200326 | 64 | 24 | 0.0 | 1.0 | 0.00 | 0.01 | 0.00 | 60 | 1024.0 |
| 20260506195833 | 64 | 67 | 0.0 | 1.0 | 0.00 | 0.01 | 0.00 | 61 | 1023.9 |
| 20260506195322 | 65 | 38 | 0.0 | 0.0 | 0.00 | 0.01 | 0.00 | 59 | 1024.0 |
| 20260506194831 | 66 | 82 | 0.0 | 9.0 | 0.00 | 0.01 | 0.00 | 58 | 1024.0 |
| 20260506194340 | 63 | 65 | 0.0 | 9.0 | 0.00 | 0.01 | 0.00 | 61 | 1024.0 |
| 20260506193907 | 65 | 23 | 0.0 | 5.0 | 0.00 | 0.01 | 0.00 | 59 | 1023.9 |
| 20260506193336 | 65 | 54 | 0.0 | 3.0 | 0.00 | 0.01 | 0.00 | 60 | 1024.1 |
| 20260506192831 | 63 | 76 | 0.0 | 3.0 | 0.00 | 0.01 | 0.00 | 63 | 1024.1 |
| 20260506192321 | 61 | 52 | 0.0 | 3.0 | 0.00 | 0.01 | 0.00 | 66 | 1024.2 |
| 20260506191822 | 62 | 43 | 0.0 | 3.0 | 0.00 | 0.01 | 0.00 | 63 | 1024.2 |
| 20260506191401 | 62 | 360 | 0.0 | 2.0 | 0.00 | 0.01 | 0.00 | 64 | 1024.3 |
| 20260506190907 | 62 | 337 | 0.0 | 2.0 | 0.00 | 0.01 | 0.00 | 63 | 1024.2 |
| 20260506190348 | 62 | 315 | 0.0 | 0.0 | 0.00 | 0.01 | 0.00 | 65 | 1024.3 |
| 20260506185827 | 61 | 311 | 0.0 | 1.0 | 0.00 | 0.01 | 0.00 | 66 | 1024.3 |
| 20260506185337 | 61 | 338 | 0.0 | 4.0 | 0.00 | 0.01 | 0.00 | 65 | 1024.4 |
| 20260506184907 | 60 | 269 | 0.0 | 4.0 | 0.00 | 0.01 | 0.00 | 65 | 1024.4 |
| 20260506184337 | 62 | 323 | 0.0 | 1.0 | 0.00 | 0.01 | 0.00 | 63 | 1024.5 |
| 20260506183845 | 62 | 78 | 0.0 | 0.0 | 0.00 | 0.01 | 0.00 | 65 | 1024.5 |
| 20260506183344 | 61 | 324 | 0.0 | 0.0 | 0.00 | 0.01 | 0.00 | 64 | 1024.4 |
| 20260506182830 | 60 | 300 | 0.0 | 1.0 | 0.00 | 0.01 | 0.00 | 67 | 1024.5 |
| 20260506182336 | 59 | 323 | 0.0 | 1.0 | 0.00 | 0.01 | 0.00 | 66 | 1024.5 |
| 20260506181905 | 60 | 327 | 0.0 | 0.0 | 0.00 | 0.01 | 0.00 | 66 | 1024.4 |
| 20260506181829 | 60 | 327 | 0.0 | 0.0 | 0.00 | 0.01 | 0.00 | 66 | 1024.4 |
| 20260506181339 | 59 | 309 | 0.0 | 0.0 | 0.00 | 0.01 | 0.00 | 66 | 1024.6 |
| 20260506180830 | 59 | 265 | 0.0 | 1.0 | 0.00 | 0.01 | 0.00 | 67 | 1024.6 |
| 20260506180330 | 59 | 344 | 0.0 | 2.0 | 0.00 | 0.01 | 0.00 | 66 | 1024.6 |
| 20260506175841 | 58 | 311 | 0.0 | 2.0 | 0.00 | 0.01 | 0.00 | 68 | 1024.6 |
| 20260506175348 | 58 | 280 | 0.0 | 1.0 | 0.00 | 0.01 | 0.00 | 68 | 1024.6 |
| 20260506174827 | 57 | 355 | 0.0 | 1.0 | 0.00 | 0.01 | 0.00 | 68 | 1024.6 |
| 20260506174337 | 58 | 266 | 0.0 | 1.0 | 0.00 | 0.01 | 0.00 | 68 | 1024.6 |
| 20260506173845 | 57 | 317 | 0.0 | 0.0 | 0.00 | 0.01 | 0.00 | 69 | 1024.6 |
| 20260506173327 | 56 | 256 | 0.0 | 5.0 | 0.00 | 0.01 | 0.00 | 70 | 1024.6 |
| 20260506172848 | 55 | 248 | 0.0 | 5.0 | 0.00 | 0.01 | 0.00 | 71 | 1024.6 |
| 20260506172336 | 56 | 347 | 0.0 | 1.0 | 0.00 | 0.01 | 0.00 | 71 | 1024.5 |
| 20260506171904 | 55 | 360 | 0.0 | 1.0 | 0.00 | 0.01 | 0.00 | 72 | 1024.5 |
| 20260506171827 | 55 | 360 | 0.0 | 1.0 | 0.00 | 0.01 | 0.00 | 72 | 1024.5 |
| 20260506171344 | 55 | 321 | 0.0 | 5.0 | 0.00 | 0.01 | 0.00 | 71 | 1024.5 |
| 20260506170848 | 55 | 336 | 0.0 | 5.0 | 0.00 | 0.01 | 0.01 | 71 | 1024.5 |
| 20260506170359 | 55 | 308 | 0.0 | 3.0 | 0.00 | 0.01 | 0.01 | 73 | 1024.5 |
| 20260506165825 | 54 | 331 | 0.0 | 3.0 | 0.00 | 0.01 | 0.01 | 74 | 1024.5 |
| 20260506165414 | 53 | 315 | 0.0 | 1.0 | 0.00 | 0.01 | 0.01 | 75 | 1024.5 |
| 20260506164842 | 53 | 325 | 0.0 | 1.0 | 0.00 | 0.01 | 0.01 | 74 | 1024.6 |
| 20260506164335 | 53 | 321 | 0.0 | 2.0 | 0.00 | 0.01 | 0.01 | 74 | 1024.7 |
| 20260506163823 | 53 | 318 | 0.0 | 2.0 | 0.00 | 0.01 | 0.01 | 73 | 1024.7 |
| 20260506163356 | 53 | 320 | 0.0 | 1.0 | 0.00 | 0.01 | 0.01 | 73 | 1024.8 |
| 20260506162856 | 53 | 318 | 0.0 | 2.0 | 0.00 | 0.01 | 0.01 | 72 | 1024.7 |
| 20260506162323 | 54 | 313 | 0.0 | 0.0 | 0.00 | 0.01 | 0.01 | 69 | 1024.6 |
| 20260506161826 | 55 | 360 | 0.0 | 0.0 | 0.00 | 0.01 | 0.01 | 71 | 1024.6 |
| 20260506161329 | 54 | 90 | 0.0 | 0.0 | 0.00 | 0.01 | 0.01 | 70 | 1024.6 |
| 20260506160838 | 54 | 17 | 0.0 | 0.0 | 0.00 | 0.01 | 0.01 | 69 | 1024.6 |
| 20260506160350 | 53 | 200 | 0.0 | 0.0 | 0.00 | 0.01 | 0.01 | 69 | 1024.6 |
| 20260506155828 | 53 | 278 | 0.0 | 1.0 | 0.00 | 0.01 | 0.01 | 71 | 1024.6 |
| 20260506155354 | 52 | 260 | 0.0 | 1.0 | 0.00 | 0.01 | 0.01 | 70 | 1024.6 |
| 20260506154824 | 52 | 226 | 0.0 | 2.0 | 0.00 | 0.01 | 0.01 | 70 | 1024.6 |
| 20260506154351 | 52 | 205 | 0.0 | 2.0 | 0.00 | 0.01 | 0.01 | 71 | 1024.6 |
| 20260506153826 | 52 | 224 | 0.0 | 1.0 | 0.00 | 0.01 | 0.01 | 71 | 1024.6 |
| 20260506153338 | 52 | 142 | 0.0 | 1.0 | 0.00 | 0.01 | 0.01 | 72 | 1024.6 |
| 20260506152846 | 52 | 42 | 0.0 | 0.0 | 0.00 | 0.01 | 0.01 | 75 | 1024.7 |
| 20260506152400 | 52 | 91 | 0.0 | 0.0 | 0.00 | 0.01 | 0.01 | 76 | 1024.6 |
| 20260506151850 | 52 | 95 | 0.0 | 0.0 | 0.00 | 0.01 | 0.01 | 76 | 1024.7 |
| 20260506151336 | 51 | 86 | 0.0 | 0.0 | 0.00 | 0.01 | 0.01 | 76 | 1024.6 |
| 20260506150834 | 51 | 79 | 0.0 | 0.0 | 0.00 | 0.01 | 0.01 | 77 | 1024.5 |
| 20260506150346 | 50 | 82 | 0.0 | 0.0 | 0.00 | 0.01 | 0.01 | 78 | 1024.5 |
| 20260506145833 | 50 | 82 | 0.0 | 0.0 | 0.00 | 0.01 | 0.01 | 79 | 1024.5 |
| 20260506145343 | 50 | 85 | 0.0 | 0.0 | 0.00 | 0.01 | 0.01 | 79 | 1024.5 |
| 20260506144823 | 50 | 73 | 0.0 | 0.0 | 0.00 | 0.01 | 0.01 | 80 | 1024.5 |
| 20260506144332 | 49 | 44 | 0.0 | 0.0 | 0.00 | 0.01 | 0.01 | 80 | 1024.5 |
| 20260506143836 | 49 | 84 | 0.0 | 0.0 | 0.00 | 0.01 | 0.01 | 79 | 1024.4 |
| 20260506143326 | 49 | 39 | 0.0 | 0.0 | 0.00 | 0.01 | 0.01 | 81 | 1024.4 |
| 20260506142852 | 48 | 180 | 0.0 | 0.0 | 0.00 | 0.01 | 0.01 | 80 | 1024.3 |
| 20260506142340 | 48 | 307 | 0.0 | 0.0 | 0.00 | 0.01 | 0.01 | 81 | 1024.3 |
| 20260506141843 | 48 | 40 | 0.0 | 0.0 | 0.00 | 0.01 | 0.01 | 82 | 1024.3 |
| 20260506141330 | 47 | 34 | 0.0 | 0.0 | 0.00 | 0.02 | 0.01 | 82 | 1024.2 |
| 20260506140830 | 47 | 246 | 0.0 | 0.0 | 0.00 | 0.02 | 0.01 | 82 | 1023.9 |
| 20260506140411 | 47 | 360 | 0.0 | 0.0 | 0.00 | 0.02 | 0.01 | 83 | 1024.1 |
| 20260506135829 | 46 | 117 | 0.0 | 0.0 | 0.00 | 0.02 | 0.01 | 84 | 1024.1 |
| 20260506135338 | 45 | 122 | 0.0 | 0.0 | 0.00 | 0.02 | 0.01 | 85 | 1024.1 |
| 20260506134853 | 44 | 198 | 0.0 | 0.0 | 0.00 | 0.02 | 0.01 | 86 | 1024.0 |
| 20260506134343 | 44 | 244 | 0.0 | 0.0 | 0.00 | 0.02 | 0.01 | 87 | 1024.0 |
| 20260506133821 | 43 | 243 | 0.0 | 0.0 | 0.00 | 0.02 | 0.01 | 87 | 1024.0 |
| 20260506133327 | 43 | 360 | 0.0 | 0.0 | 0.00 | 0.02 | 0.01 | 87 | 1024.0 |
| 20260506132833 | 42 | 360 | 0.0 | 0.0 | 0.00 | 0.02 | 0.01 | 86 | 1023.9 |
| 20260506132322 | 42 | 360 | 0.0 | 0.0 | 0.00 | 0.02 | 0.01 | 85 | 1024.0 |
| 20260506131831 | 42 | 360 | 0.0 | 0.0 | 0.00 | 0.02 | 0.01 | 85 | 1023.9 |
| 20260506131343 | 43 | 360 | 0.0 | 0.0 | 0.00 | 0.02 | 0.01 | 84 | 1023.9 |
| 20260506130820 | 43 | 360 | 0.0 | 0.0 | 0.00 | 0.02 | 0.01 | 84 | 1023.9 |
| 20260506130332 | 43 | 360 | 0.0 | 0.0 | 0.00 | 0.02 | 0.01 | 84 | 1023.8 |
| 20260506125836 | 44 | 360 | 0.0 | 0.0 | 0.00 | 0.02 | 0.01 | 83 | 1023.7 |
| 20260506125322 | 44 | 360 | 0.0 | 0.0 | 0.00 | 0.02 | 0.01 | 83 | 1023.6 |
| 20260506124854 | 45 | 360 | 0.0 | 0.0 | 0.00 | 0.02 | 0.01 | 83 | 1023.5 |
| 20260506124328 | 45 | 360 | 0.0 | 0.0 | 0.00 | 0.02 | 0.01 | 83 | 1023.5 |
| 20260506123906 | 45 | 360 | 0.0 | 0.0 | 0.00 | 0.02 | 0.01 | 83 | 1023.5 |
| 20260506123355 | 45 | 360 | 0.0 | 0.0 | 0.00 | 0.02 | 0.01 | 82 | 1023.5 |
| 20260506122830 | 45 | 342 | 0.0 | 0.0 | 0.00 | 0.02 | 0.01 | 83 | 1023.4 |
| 20260506122340 | 45 | 360 | 0.0 | 0.0 | 0.00 | 0.02 | 0.01 | 83 | 1023.5 |
| 20260506121832 | 45 | 360 | 0.0 | 0.0 | 0.00 | 0.02 | 0.01 | 82 | 1023.4 |
| 20260506121332 | 46 | 360 | 0.0 | 0.0 | 0.00 | 0.02 | 0.01 | 82 | 1023.4 |
| 20260506120841 | 46 | 360 | 0.0 | 0.0 | 0.00 | 0.02 | 0.01 | 82 | 1023.4 |
| 20260506120331 | 46 | 360 | 0.0 | 0.0 | 0.00 | 0.02 | 0.01 | 82 | 1023.4 |
| 20260506115843 | 46 | 360 | 0.0 | 0.0 | 0.00 | 0.02 | 0.01 | 82 | 1023.4 |
| 20260506115329 | 46 | 360 | 0.0 | 0.0 | 0.00 | 0.02 | 0.01 | 82 | 1023.5 |
| 20260506114855 | 46 | 360 | 0.0 | 0.0 | 0.00 | 0.02 | 0.01 | 81 | 1023.5 |
| 20260506114332 | 46 | 360 | 0.0 | 0.0 | 0.00 | 0.02 | 0.01 | 81 | 1023.5 |
| 20260506113900 | 46 | 360 | 0.0 | 0.0 | 0.00 | 0.02 | 0.01 | 81 | 1023.4 |
| 20260506113358 | 46 | 360 | 0.0 | 0.0 | 0.00 | 0.02 | 0.01 | 81 | 1023.5 |
| 20260506112833 | 46 | 360 | 0.0 | 0.0 | 0.00 | 0.02 | 0.01 | 81 | 1023.4 |
| 20260506112324 | 46 | 360 | 0.0 | 0.0 | 0.00 | 0.02 | 0.01 | 81 | 1023.2 |
| 20260506111836 | 46 | 360 | 0.0 | 0.0 | 0.00 | 0.02 | 0.01 | 81 | 1023.2 |
| 20260506111333 | 46 | 360 | 0.0 | 0.0 | 0.00 | 0.02 | 0.01 | 81 | 1023.2 |
| 20260506110821 | 46 | 360 | 0.0 | 0.0 | 0.00 | 0.02 | 0.01 | 81 | 1023.2 |
| 20260506110411 | 46 | 360 | 0.0 | 0.0 | 0.00 | 0.02 | 0.01 | 81 | 1023.2 |
| 20260506105841 | 46 | 360 | 0.0 | 0.0 | 0.00 | 0.02 | 0.01 | 80 | 1023.2 |
| 20260506105324 | 46 | 360 | 0.0 | 0.0 | 0.00 | 0.02 | 0.01 | 80 | 1023.2 |
| 20260506104824 | 46 | 360 | 0.0 | 0.0 | 0.00 | 0.02 | 0.01 | 80 | 1023.1 |
| 20260506104405 | 46 | 360 | 0.0 | 0.0 | 0.00 | 0.02 | 0.01 | 80 | 1023.1 |
| 20260506103848 | 46 | 360 | 0.0 | 0.0 | 0.00 | 0.02 | 0.01 | 80 | 1023.1 |
| 20260506103339 | 46 | 360 | 0.0 | 0.0 | 0.00 | 0.02 | 0.01 | 81 | 1023.0 |
| 20260506102827 | 46 | 360 | 0.0 | 0.0 | 0.00 | 0.02 | 0.01 | 81 | 1023.0 |
| 20260506102328 | 46 | 360 | 0.0 | 0.0 | 0.00 | 0.02 | 0.01 | 81 | 1023.1 |
| 20260506101835 | 46 | 360 | 0.0 | 0.0 | 0.00 | 0.02 | 0.01 | 80 | 1023.1 |
| 20260506101343 | 46 | 360 | 0.0 | 0.0 | 0.00 | 0.02 | 0.01 | 81 | 1023.0 |
| 20260506100832 | 46 | 360 | 0.0 | 0.0 | 0.00 | 0.02 | 0.01 | 81 | 1023.0 |
| 20260506100334 | 46 | 360 | 0.0 | 0.0 | 0.00 | 0.02 | 0.01 | 81 | 1023.0 |
| 20260506095836 | 46 | 360 | 0.0 | 0.0 | 0.00 | 0.02 | 0.01 | 81 | 1022.9 |
| 20260506095322 | 46 | 360 | 0.0 | 0.0 | 0.00 | 0.02 | 0.01 | 81 | 1022.8 |
| 20260506094910 | 46 | 360 | 0.0 | 0.0 | 0.00 | 0.02 | 0.01 | 81 | 1022.9 |
| 20260506094334 | 46 | 360 | 0.0 | 0.0 | 0.00 | 0.02 | 0.01 | 81 | 1022.9 |
| 20260506093900 | 46 | 360 | 0.0 | 0.0 | 0.00 | 0.02 | 0.01 | 81 | 1022.9 |
| 20260506093350 | 46 | 360 | 0.0 | 0.0 | 0.00 | 0.02 | 0.01 | 81 | 1022.9 |
| 20260506092828 | 46 | 360 | 0.0 | 0.0 | 0.00 | 0.02 | 0.01 | 81 | 1022.8 |
| 20260506092337 | 46 | 360 | 0.0 | 1.0 | 0.00 | 0.02 | 0.01 | 81 | 1022.8 |
| 20260506091829 | 46 | 360 | 0.0 | 1.0 | 0.00 | 0.02 | 0.01 | 81 | 1022.8 |
| 20260506091328 | 46 | 360 | 0.0 | 0.0 | 0.00 | 0.02 | 0.01 | 82 | 1022.9 |
| 20260506090837 | 45 | 360 | 0.0 | 0.0 | 0.00 | 0.02 | 0.01 | 82 | 1022.9 |
| 20260506090328 | 45 | 360 | 0.0 | 0.0 | 0.00 | 0.02 | 0.01 | 83 | 1022.9 |
| 20260506085827 | 45 | 360 | 0.0 | 0.0 | 0.00 | 0.02 | 0.01 | 83 | 1022.8 |
| 20260506085405 | 45 | 360 | 0.0 | 0.0 | 0.00 | 0.02 | 0.01 | 83 | 1022.8 |
| 20260506084833 | 45 | 360 | 0.0 | 0.0 | 0.00 | 0.02 | 0.01 | 83 | 1022.8 |
| 20260506084321 | 45 | 360 | 0.0 | 0.0 | 0.00 | 0.02 | 0.01 | 83 | 1022.9 |
| 20260506083821 | 45 | 360 | 0.0 | 0.0 | 0.00 | 0.02 | 0.01 | 83 | 1022.9 |
| 20260506083333 | 45 | 360 | 0.0 | 0.0 | 0.00 | 0.02 | 0.01 | 83 | 1022.8 |
| 20260506082820 | 45 | 360 | 0.0 | 0.0 | 0.00 | 0.02 | 0.01 | 83 | 1022.8 |
| 20260506082348 | 45 | 360 | 0.0 | 0.0 | 0.00 | 0.02 | 0.01 | 83 | 1022.8 |
| 20260506081828 | 44 | 360 | 0.0 | 0.0 | 0.00 | 0.02 | 0.01 | 84 | 1022.8 |
| 20260506081400 | 44 | 360 | 0.0 | 0.0 | 0.00 | 0.02 | 0.01 | 84 | 1022.8 |
| 20260506080827 | 44 | 360 | 0.0 | 0.0 | 0.00 | 0.02 | 0.01 | 84 | 1022.8 |
| 20260506080327 | 44 | 223 | 0.0 | 0.0 | 0.00 | 0.02 | 0.01 | 84 | 1022.8 |
| 20260506073357 | 45 | 360 | 0.0 | 0.0 | 0.00 | 0.02 | 0.01 | 83 | 1022.7 |
| 20260506072908 | 45 | 360 | 0.0 | 0.0 | 0.00 | 0.02 | 0.01 | 82 | 1022.6 |
| 20260506072324 | 45 | 360 | 0.0 | 0.0 | 0.00 | 0.02 | 0.01 | 82 | 1022.6 |
| 20260506071834 | 45 | 360 | 0.0 | 0.0 | 0.00 | 0.02 | 0.01 | 82 | 1022.6 |
| 20260506071346 | 45 | 360 | 0.0 | 0.0 | 0.00 | 0.02 | 0.01 | 82 | 1022.5 |
| 20260506070823 | 45 | 360 | 0.0 | 0.0 | 0.00 | 0.02 | 0.01 | 82 | 1022.5 |
| 20260506070333 | 45 | 360 | 0.0 | 0.0 | 0.00 | 0.02 | 0.01 | 83 | 1022.5 |
| 20260506062334 | 44 | 360 | 0.0 | 0.0 | 0.00 | 0.02 | 0.01 | 82 | 1022.0 |
| 20260506061847 | 44 | 360 | 0.0 | 0.0 | 0.00 | 0.02 | 0.01 | 82 | 1022.0 |
| 20260506061333 | 44 | 360 | 0.0 | 0.0 | 0.00 | 0.02 | 0.01 | 82 | 1022.0 |
| 20260506060902 | 45 | 360 | 0.0 | 0.0 | 0.00 | 0.02 | 0.01 | 82 | 1021.9 |
| 20260506060324 | 45 | 360 | 0.0 | 0.0 | 0.00 | 0.02 | 0.01 | 82 | 1021.9 |
| 20260506051341 | 45 | 360 | 0.0 | 1.0 | 0.00 | 0.02 | 0.01 | 82 | 1021.6 |
| 20260506050849 | 45 | 360 | 0.0 | 0.0 | 0.00 | 0.02 | 0.01 | 82 | 1021.6 |
| 20260506050329 | 45 | 360 | 0.0 | 0.0 | 0.00 | 0.02 | 0.01 | 82 | 1021.6 |
| 20260506044831 | 46 | 360 | 0.0 | 0.0 | 0.00 | 0.02 | 0.01 | 81 | 1021.6 |
| 20260506044335 | 46 | 360 | 0.0 | 0.0 | 0.00 | 0.02 | 0.01 | 81 | 1021.4 |
| 20260506043836 | 46 | 360 | 0.0 | 6.0 | 0.00 | 0.02 | 0.01 | 81 | 1021.4 |
| 20260506043327 | 46 | 360 | 0.0 | 6.0 | 0.00 | 0.02 | 0.01 | 82 | 1021.4 |
| 20260506042855 | 45 | 360 | 0.0 | 0.0 | 0.00 | 0.02 | 0.01 | 81 | 1021.3 |
| 20260506042341 | 45 | 360 | 0.0 | 0.0 | 0.00 | 0.02 | 0.01 | 81 | 1021.2 |
| 20260506041825 | 45 | 360 | 0.0 | 0.0 | 0.00 | 0.02 | 0.01 | 81 | 1021.2 |
| 20260506041401 | 45 | 360 | 0.0 | 0.0 | 0.00 | 0.02 | 0.01 | 81 | 1021.1 |
| 20260506040827 | 45 | 360 | 0.0 | 0.0 | 0.00 | 0.02 | 0.01 | 81 | 1021.1 |
| 20260506040340 | 45 | 360 | 0.0 | 0.0 | 0.00 | 0.02 | 0.01 | 81 | 1021.1 |
| 20260506035836 | 45 | 360 | 0.0 | 0.0 | 0.00 | 0.02 | 0.01 | 81 | 1021.0 |
| 20260506035325 | 45 | 360 | 0.0 | 0.0 | 0.00 | 0.02 | 0.01 | 80 | 1021.0 |
| 20260506034828 | 45 | 360 | 0.0 | 0.0 | 0.00 | 0.02 | 0.01 | 81 | 1020.9 |
| 20260506034334 | 45 | 360 | 0.0 | 0.0 | 0.00 | 0.02 | 0.01 | 81 | 1020.8 |
| 20260506033825 | 45 | 360 | 0.0 | 0.0 | 0.00 | 0.02 | 0.01 | 81 | 1020.7 |
| 20260506033325 | 45 | 360 | 0.0 | 0.0 | 0.00 | 0.02 | 0.01 | 80 | 1020.7 |
| 20260506032838 | 45 | 360 | 0.0 | 0.0 | 0.00 | 0.02 | 0.01 | 80 | 1020.6 |
| 20260506032325 | 45 | 360 | 0.0 | 0.0 | 0.00 | 0.02 | 0.01 | 80 | 1020.6 |
| 20260506031828 | 45 | 360 | 0.0 | 0.0 | 0.00 | 0.02 | 0.01 | 80 | 1020.5 |
| 20260506031336 | 45 | 360 | 0.0 | 0.0 | 0.00 | 0.02 | 0.01 | 79 | 1020.4 |
| 20260506030825 | 45 | 360 | 0.0 | 0.0 | 0.00 | 0.02 | 0.01 | 79 | 1020.3 |
| 20260506030327 | 45 | 360 | 0.0 | 0.0 | 0.00 | 0.02 | 0.01 | 79 | 1020.4 |
| 20260506025828 | 46 | 360 | 0.0 | 0.0 | 0.00 | 0.02 | 0.01 | 79 | 1020.3 |
| 20260506025337 | 46 | 360 | 0.0 | 0.0 | 0.00 | 0.02 | 0.01 | 79 | 1020.2 |
| 20260506024837 | 46 | 360 | 0.0 | 1.0 | 0.00 | 0.02 | 0.01 | 79 | 1020.2 |
| 20260506024341 | 46 | 360 | 0.0 | 1.0 | 0.00 | 0.02 | 0.01 | 79 | 1020.0 |
| 20260506023828 | 46 | 360 | 0.0 | 0.0 | 0.00 | 0.02 | 0.01 | 79 | 1019.9 |
| 20260506023328 | 46 | 360 | 0.0 | 0.0 | 0.00 | 0.02 | 0.01 | 80 | 1019.9 |
| 20260506022839 | 46 | 360 | 0.0 | 0.0 | 0.00 | 0.02 | 0.01 | 80 | 1019.8 |
| 20260506022328 | 46 | 360 | 0.0 | 1.0 | 0.00 | 0.02 | 0.01 | 81 | 1019.8 |
| 20260506021828 | 46 | 360 | 0.0 | 1.0 | 0.00 | 0.02 | 0.01 | 81 | 1019.7 |
| 20260506021341 | 46 | 360 | 0.0 | 0.0 | 0.00 | 0.02 | 0.01 | 81 | 1019.7 |
| 20260506020848 | 46 | 360 | 0.0 | 0.0 | 0.00 | 0.02 | 0.01 | 81 | 1019.6 |
| 20260506020335 | 46 | 360 | 0.0 | 0.0 | 0.00 | 0.02 | 0.01 | 81 | 1019.6 |
| 20260506015846 | 46 | 360 | 0.0 | 0.0 | 0.00 | 0.02 | 0.01 | 82 | 1019.5 |
| 20260506015323 | 47 | 360 | 0.0 | 3.0 | 0.00 | 0.02 | 0.01 | 82 | 1019.5 |
| 20260506014848 | 47 | 360 | 0.0 | 8.0 | 0.00 | 0.02 | 0.01 | 82 | 1019.5 |
| 20260506014340 | 47 | 360 | 0.0 | 4.0 | 0.00 | 0.02 | 0.01 | 82 | 1019.6 |
| 20260506013849 | 47 | 360 | 0.0 | 3.0 | 0.00 | 0.02 | 0.01 | 81 | 1019.5 |
| 20260506013339 | 47 | 360 | 0.0 | 5.0 | 0.00 | 0.02 | 0.01 | 81 | 1019.5 |
| 20260506012835 | 47 | 360 | 0.0 | 5.0 | 0.00 | 0.02 | 0.01 | 81 | 1019.4 |
| 20260506012325 | 47 | 360 | 0.0 | 3.0 | 0.00 | 0.02 | 0.01 | 81 | 1019.4 |
| 20260506011837 | 47 | 360 | 0.0 | 0.0 | 0.00 | 0.02 | 0.01 | 81 | 1019.4 |
| 20260506011335 | 47 | 360 | 0.0 | 1.0 | 0.00 | 0.02 | 0.01 | 82 | 1019.3 |
| 20260506010914 | 47 | 360 | 0.0 | 1.0 | 0.00 | 0.02 | 0.01 | 82 | 1019.2 |
| 20260506010332 | 46 | 360 | 0.0 | 1.0 | 0.00 | 0.02 | 0.01 | 82 | 1019.2 |
| 20260506005903 | 46 | 360 | 0.0 | 1.0 | 0.00 | 0.02 | 0.01 | 83 | 1019.2 |
| 20260506005329 | 46 | 360 | 0.0 | 0.0 | 0.00 | 0.02 | 0.01 | 84 | 1019.3 |
| 20260506004839 | 46 | 360 | 0.0 | 0.0 | 0.00 | 0.02 | 0.01 | 84 | 1019.4 |
| 20260506004405 | 46 | 360 | 0.0 | 0.0 | 0.00 | 0.02 | 0.01 | 85 | 1019.4 |
| 20260506003824 | 46 | 360 | 0.0 | 0.0 | 0.00 | 0.02 | 0.01 | 86 | 1019.4 |
| 20260506003331 | 46 | 360 | 0.0 | 1.0 | 0.00 | 0.02 | 0.01 | 86 | 1019.4 |
| 20260506002842 | 46 | 360 | 0.0 | 2.0 | 0.00 | 0.02 | 0.01 | 87 | 1019.4 |
| 20260506002349 | 46 | 360 | 0.0 | 0.0 | 0.00 | 0.02 | 0.01 | 87 | 1019.4 |
| 20260506001830 | 45 | 360 | 0.0 | 5.0 | 0.00 | 0.02 | 0.01 | 86 | 1019.3 |
| 20260506001341 | 45 | 360 | 0.0 | 5.0 | 0.00 | 0.02 | 0.01 | 87 | 1019.2 |
| 20260506000848 | 45 | 360 | 0.0 | 4.0 | 0.00 | 0.02 | 0.01 | 87 | 1019.1 |
| 20260506000330 | 45 | 360 | 0.0 | 4.0 | 0.00 | 0.02 | 0.01 | 87 | 1019.0 |
| 20260505235901 | 45 | 360 | 0.0 | 1.0 | 0.00 | 0.02 | 0.01 | 86 | 1019.0 |
| 20260505235327 | 46 | 360 | 0.0 | 1.0 | 0.00 | 0.02 | 0.01 | 86 | 1019.1 |
| 20260505234827 | 46 | 360 | 0.0 | 0.0 | 0.00 | 0.02 | 0.01 | 85 | 1018.8 |
| 20260505234338 | 46 | 360 | 0.0 | 0.0 | 0.00 | 0.02 | 0.01 | 85 | 1018.9 |
| 20260505233827 | 46 | 360 | 0.0 | 0.0 | 0.00 | 0.02 | 0.01 | 85 | 1019.0 |
| 20260505233353 | 46 | 360 | 0.0 | 1.0 | 0.00 | 0.02 | 0.01 | 85 | 1019.0 |
| 20260505232900 | 46 | 360 | 0.0 | 1.0 | 0.00 | 0.02 | 0.01 | 85 | 1019.1 |
| 20260505232402 | 46 | 360 | 0.0 | 3.0 | 0.00 | 0.02 | 0.01 | 85 | 1019.1 |
| 20260505231850 | 46 | 360 | 0.0 | 3.0 | 0.00 | 0.02 | 0.01 | 84 | 1019.1 |
| 20260505231327 | 46 | 325 | 0.0 | 1.0 | 0.00 | 0.02 | 0.01 | 84 | 1019.1 |
| 20260505230835 | 46 | 360 | 0.0 | 3.0 | 0.00 | 0.02 | 0.01 | 83 | 1019.1 |
| 20260505230325 | 47 | 360 | 0.0 | 0.0 | 0.00 | 0.02 | 0.01 | 82 | 1019.1 |
| 20260505225824 | 47 | 360 | 0.0 | 2.0 | 0.00 | 0.02 | 0.01 | 82 | 1019.1 |
| 20260505225334 | 47 | 360 | 0.0 | 2.0 | 0.00 | 0.02 | 0.01 | 82 | 1019.1 |
| 20260505224824 | 46 | 360 | 0.0 | 6.0 | 0.00 | 0.02 | 0.01 | 83 | 1019.1 |
| 20260505224333 | 46 | 360 | 0.0 | 1.0 | 0.00 | 0.02 | 0.01 | 83 | 1019.2 |
| 20260505223832 | 46 | 312 | 0.0 | 1.0 | 0.00 | 0.02 | 0.01 | 83 | 1019.4 |
| 20260505223323 | 46 | 253 | 0.0 | 2.0 | 0.00 | 0.02 | 0.01 | 83 | 1019.3 |
| 20260505222827 | 46 | 360 | 0.0 | 2.0 | 0.00 | 0.02 | 0.01 | 83 | 1019.3 |
| 20260505222326 | 46 | 360 | 0.0 | 1.0 | 0.00 | 0.02 | 0.01 | 82 | 1019.3 |